createdAt,value
2018-03-16T00:00:17.925Z,90.29
2018-03-16T00:01:03.381Z,91.33
2018-03-16T00:02:03.693Z,91.14
2018-03-16T00:03:03.994Z,91.33
2018-03-16T00:04:04.256Z,91.14
2018-03-16T00:05:04.746Z,91.80
2018-03-16T00:06:04.912Z,91.99
2018-03-16T00:07:05.027Z,91.90
2018-03-16T00:08:05.433Z,92.09
2018-03-16T00:09:05.544Z,92.28
2018-03-16T00:10:05.889Z,92.18
2018-03-16T00:11:06.221Z,91.42
2018-03-16T00:12:06.538Z,90.95
2018-03-16T00:13:06.589Z,91.42
2018-03-16T00:14:07.019Z,90.86
2018-03-16T00:15:07.081Z,91.05
2018-03-16T00:16:10.136Z,91.71
2018-03-16T00:17:07.787Z,91.90
2018-03-16T00:18:07.987Z,91.42
2018-03-16T00:19:08.250Z,91.52
2018-03-16T00:20:08.439Z,91.52
2018-03-16T00:21:08.745Z,91.42
2018-03-16T00:22:09.348Z,91.52
2018-03-16T00:23:09.431Z,91.90
2018-03-16T00:24:09.659Z,91.05
2018-03-16T00:25:09.873Z,90.86
2018-03-16T00:26:10.178Z,91.52
2018-03-16T00:27:10.340Z,92.09
2018-03-16T00:28:10.552Z,91.61
2018-03-16T00:29:10.938Z,91.61
2018-03-16T00:30:11.218Z,91.61
2018-03-16T00:31:11.302Z,90.86
2018-03-16T00:32:11.559Z,90.57
2018-03-16T00:33:14.175Z,90.57
2018-03-16T00:34:12.186Z,91.24
2018-03-16T00:35:12.388Z,90.86
2018-03-16T00:36:12.619Z,91.05
2018-03-16T00:37:12.908Z,91.24
2018-03-16T00:38:13.186Z,91.99
2018-03-16T00:39:13.449Z,91.14
2018-03-16T00:40:14.555Z,91.71
2018-03-16T00:41:14.217Z,90.48
2018-03-16T00:42:14.356Z,90.38
2018-03-16T00:43:14.529Z,91.05
2018-03-16T00:44:14.906Z,91.14
2018-03-16T00:45:15.031Z,91.52
2018-03-16T00:46:15.998Z,91.61
2018-03-16T00:47:24.977Z,91.14
2018-03-16T00:48:16.010Z,91.24
2018-03-16T00:49:16.255Z,91.33
2018-03-16T00:50:16.542Z,91.99
2018-03-16T00:51:16.700Z,90.86
2018-03-16T00:52:16.944Z,91.52
2018-03-16T00:53:17.641Z,91.71
2018-03-16T00:54:17.657Z,92.09
2018-03-16T00:55:18.017Z,91.71
2018-03-16T00:56:18.195Z,91.42
2018-03-16T00:57:18.362Z,91.61
2018-03-16T00:58:18.620Z,91.05
2018-03-16T00:59:18.917Z,91.99
2018-03-16T01:00:19.091Z,92.28
2018-03-16T01:01:19.421Z,91.99
2018-03-16T01:02:20.051Z,92.18
2018-03-16T01:03:19.966Z,91.99
2018-03-16T01:04:20.160Z,92.38
2018-03-16T01:05:20.483Z,92.28
2018-03-16T01:06:20.651Z,92.38
2018-03-16T01:11:14.835Z,91.85
2018-03-16T01:12:13.911Z,92.23
2018-03-16T01:13:14.101Z,92.47
2018-03-16T01:14:14.428Z,93.37
2018-03-16T01:15:14.710Z,93.61
2018-03-16T01:16:14.944Z,94.08
2018-03-16T01:17:15.146Z,93.99
2018-03-16T01:18:15.376Z,93.32
2018-03-16T01:19:15.590Z,93.32
2018-03-16T01:20:15.851Z,93.51
2018-03-16T01:21:16.083Z,92.99
2018-03-16T01:22:16.346Z,93.04
2018-03-16T01:23:16.694Z,93.32
2018-03-16T01:24:16.860Z,93.23
2018-03-16T01:25:17.099Z,93.13
2018-03-16T01:26:17.363Z,93.32
2018-03-16T01:27:17.643Z,93.04
2018-03-16T01:28:17.893Z,93.61
2018-03-16T01:29:18.047Z,93.51
2018-03-16T01:30:18.344Z,93.37
2018-03-16T01:31:18.553Z,93.75
2018-03-16T01:32:18.834Z,93.84
2018-03-16T01:33:19.017Z,94.32
2018-03-16T01:34:19.246Z,94.13
2018-03-16T01:35:19.506Z,94.89
2018-03-16T01:36:19.813Z,94.70
2018-03-16T01:37:20.000Z,94.79
2018-03-16T01:38:20.243Z,95.65
2018-03-16T01:39:20.491Z,95.36
2018-03-16T01:40:20.728Z,95.55
2018-03-16T01:41:21.082Z,96.03
2018-03-16T01:42:21.289Z,96.12
2018-03-16T01:43:21.536Z,96.22
2018-03-16T01:44:21.706Z,96.50
2018-03-16T01:45:21.923Z,96.31
2018-03-16T01:46:22.218Z,96.69
2018-03-16T01:47:22.452Z,96.12
2018-03-16T01:48:22.697Z,96.22
2018-03-16T01:49:22.927Z,95.93
2018-03-16T01:50:23.152Z,95.84
2018-03-16T01:51:23.434Z,96.41
2018-03-16T01:52:23.629Z,96.50
2018-03-16T01:53:23.872Z,96.78
2018-03-16T01:54:24.195Z,96.50
2018-03-16T01:55:24.372Z,96.41
2018-03-16T01:56:24.602Z,96.31
2018-03-16T01:57:24.868Z,96.59
2018-03-16T01:58:25.087Z,96.41
2018-03-16T01:59:25.385Z,96.50
2018-03-16T02:00:25.598Z,95.84
2018-03-16T02:01:25.846Z,96.03
2018-03-16T02:02:26.035Z,96.12
2018-03-16T02:03:26.316Z,96.41
2018-03-16T02:04:26.577Z,96.41
2018-03-16T02:05:26.778Z,95.84
2018-03-16T02:06:27.131Z,96.22
2018-03-16T02:07:27.280Z,95.84
2018-03-16T02:08:27.524Z,96.12
2018-03-16T02:09:27.730Z,96.59
2018-03-16T02:10:28.036Z,96.12
2018-03-16T02:11:28.242Z,96.50
2018-03-16T02:12:28.471Z,96.12
2018-03-16T02:13:28.833Z,96.22
2018-03-16T02:14:29.054Z,96.12
2018-03-16T02:15:29.268Z,96.12
2018-03-16T02:16:29.575Z,96.12
2018-03-16T02:17:29.734Z,96.12
2018-03-16T02:18:30.042Z,95.65
2018-03-16T02:19:30.347Z,95.50
2018-03-16T02:20:30.576Z,96.41
2018-03-16T02:21:30.722Z,95.74
2018-03-16T02:22:30.950Z,96.03
2018-03-16T02:23:31.247Z,95.74
2018-03-16T02:24:31.762Z,96.31
2018-03-16T02:25:31.704Z,96.41
2018-03-16T02:26:32.108Z,95.84
2018-03-16T02:27:32.215Z,95.41
2018-03-16T02:28:32.446Z,96.17
2018-03-16T02:29:32.797Z,96.41
2018-03-16T02:30:32.988Z,95.69
2018-03-16T02:31:33.244Z,95.79
2018-03-16T02:32:33.453Z,95.50
2018-03-16T02:33:33.670Z,95.22
2018-03-16T02:34:33.896Z,95.60
2018-03-16T02:35:34.235Z,95.45
2018-03-16T02:36:37.612Z,96.17
2018-03-16T02:41:00.563Z,95.60
2018-03-16T02:41:59.957Z,95.50
2018-03-16T02:43:00.247Z,95.41
2018-03-16T02:44:00.514Z,95.79
2018-03-16T02:45:01.698Z,95.22
2018-03-16T02:46:01.120Z,95.69
2018-03-16T02:47:01.337Z,95.60
2018-03-16T02:48:02.024Z,95.74
2018-03-16T03:02:59.130Z,95.50
2018-03-16T03:03:30.937Z,95.50
2018-03-16T03:04:31.009Z,95.69
2018-03-16T03:05:31.223Z,95.79
2018-03-16T03:06:31.616Z,95.31
2018-03-16T03:07:33.144Z,95.60
2018-03-16T03:08:32.030Z,95.50
2018-03-16T03:09:32.221Z,95.60
2018-03-16T03:10:32.437Z,95.50
2018-03-16T03:11:40.340Z,96.36
2018-03-16T03:12:33.069Z,95.60
2018-03-16T03:13:33.322Z,95.60
2018-03-16T03:14:33.528Z,95.41
2018-03-16T03:15:33.910Z,95.41
2018-03-16T03:16:34.093Z,95.60
2018-03-16T03:17:34.415Z,95.22
2018-03-16T03:18:35.003Z,94.65
2018-03-16T03:19:35.678Z,95.22
2018-03-16T03:20:35.310Z,95.12
2018-03-16T03:21:35.470Z,95.03
2018-03-16T03:22:35.846Z,95.50
2018-03-16T03:23:35.949Z,95.50
2018-03-16T03:24:36.236Z,95.60
2018-03-16T03:26:36.772Z,95.50
2018-03-16T03:27:36.979Z,94.93
2018-03-16T03:28:37.284Z,94.18
2018-03-16T03:29:37.458Z,94.27
2018-03-16T03:30:37.696Z,94.93
2018-03-16T03:31:52.702Z,94.56
2018-03-16T03:32:38.293Z,94.84
2018-03-16T03:33:38.537Z,94.74
2018-03-16T03:34:39.002Z,94.46
2018-03-16T03:35:39.070Z,95.03
2018-03-16T03:36:39.354Z,95.31
2018-03-16T03:37:39.558Z,95.60
2018-03-16T03:38:39.738Z,95.41
2018-03-16T03:39:39.961Z,95.50
2018-03-16T03:40:40.194Z,95.69
2018-03-16T03:41:40.496Z,94.93
2018-03-16T03:42:40.690Z,94.65
2018-03-16T03:43:40.950Z,94.65
2018-03-16T03:44:41.184Z,95.03
2018-03-16T03:45:41.425Z,94.46
2018-03-16T03:46:41.784Z,95.03
2018-03-16T03:47:42.017Z,94.46
2018-03-16T03:48:42.235Z,95.12
2018-03-16T03:49:42.432Z,94.46
2018-03-16T03:50:42.714Z,94.93
2018-03-16T03:51:43.059Z,94.27
2018-03-16T03:52:43.161Z,94.37
2018-03-16T03:53:43.448Z,94.37
2018-03-16T03:54:43.711Z,94.37
2018-03-16T03:55:43.894Z,95.03
2018-03-16T03:56:44.145Z,95.12
2018-03-16T03:57:44.384Z,94.74
2018-03-16T03:58:44.595Z,94.46
2018-03-16T03:59:44.878Z,94.18
2018-03-16T04:00:45.167Z,94.74
2018-03-16T04:01:45.292Z,94.84
2018-03-16T04:02:45.577Z,94.65
2018-03-16T04:03:45.832Z,94.27
2018-03-16T04:04:46.106Z,94.27
2018-03-16T04:05:46.306Z,94.08
2018-03-16T04:06:46.550Z,94.27
2018-03-16T04:07:46.795Z,94.27
2018-03-16T04:08:47.042Z,94.84
2018-03-16T04:09:47.283Z,95.03
2018-03-16T04:10:47.517Z,94.84
2018-03-16T04:11:48.649Z,94.46
2018-03-16T04:12:48.042Z,94.65
2018-03-16T04:13:48.280Z,94.27
2018-03-16T04:14:48.548Z,94.46
2018-03-16T04:15:48.779Z,94.84
2018-03-16T04:16:48.981Z,95.12
2018-03-16T04:17:49.223Z,94.84
2018-03-16T04:18:49.511Z,94.65
2018-03-16T04:19:49.769Z,95.03
2018-03-16T04:20:49.951Z,94.37
2018-03-16T04:21:50.207Z,94.56
2018-03-16T04:22:50.481Z,94.27
2018-03-16T04:23:50.681Z,94.93
2018-03-16T04:24:50.937Z,94.65
2018-03-16T04:25:51.300Z,94.74
2018-03-16T04:26:51.478Z,94.46
2018-03-16T04:27:51.664Z,94.27
2018-03-16T04:28:51.876Z,94.27
2018-03-16T04:29:52.127Z,94.65
2018-03-16T04:30:52.398Z,94.08
2018-03-16T04:31:52.782Z,94.65
2018-03-16T04:32:52.886Z,94.27
2018-03-16T04:33:53.169Z,94.18
2018-03-16T04:34:53.384Z,93.99
2018-03-16T04:35:53.686Z,94.08
2018-03-16T04:36:53.856Z,94.46
2018-03-16T04:37:54.134Z,93.70
2018-03-16T04:38:54.342Z,94.08
2018-03-16T04:39:54.569Z,94.18
2018-03-16T04:40:54.832Z,94.65
2018-03-16T04:41:55.090Z,94.84
2018-03-16T04:42:55.354Z,94.46
2018-03-16T04:43:55.560Z,94.56
2018-03-16T04:44:55.825Z,94.37
2018-03-16T04:45:56.050Z,95.12
2018-03-16T04:46:56.411Z,95.03
2018-03-16T04:47:56.540Z,94.65
2018-03-16T04:48:56.830Z,94.18
2018-03-16T04:49:57.067Z,93.84
2018-03-16T04:50:57.355Z,94.23
2018-03-16T04:51:57.527Z,94.60
2018-03-16T04:52:57.794Z,94.79
2018-03-16T04:53:58.022Z,94.42
2018-03-16T04:54:58.322Z,94.79
2018-03-16T04:55:58.554Z,94.60
2018-03-16T04:56:58.868Z,94.51
2018-03-16T04:57:59.068Z,94.42
2018-03-16T04:58:59.445Z,94.93
2018-03-16T05:00:00.190Z,94.42
2018-03-16T05:00:59.873Z,94.18
2018-03-16T05:02:00.109Z,94.23
2018-03-16T05:03:00.397Z,94.65
2018-03-16T05:04:00.817Z,94.37
2018-03-16T05:05:01.247Z,93.99
2018-03-16T05:06:01.515Z,93.84
2018-03-16T05:07:04.449Z,93.84
2018-03-16T05:08:01.920Z,94.13
2018-03-16T05:09:02.232Z,94.23
2018-03-16T05:10:02.465Z,93.94
2018-03-16T05:11:02.582Z,93.75
2018-03-16T05:12:02.965Z,94.42
2018-03-16T05:13:03.236Z,94.98
2018-03-16T05:14:05.669Z,94.79
2018-03-16T05:15:03.872Z,94.98
2018-03-16T05:16:04.137Z,94.42
2018-03-16T05:17:04.474Z,94.60
2018-03-16T05:18:04.703Z,94.79
2018-03-16T05:19:04.952Z,94.98
2018-03-16T05:20:05.333Z,94.79
2018-03-16T05:21:05.607Z,94.42
2018-03-16T05:22:05.805Z,94.42
2018-03-16T05:23:06.015Z,94.60
2018-03-16T05:24:06.293Z,95.07
2018-03-16T05:25:06.498Z,94.60
2018-03-16T05:26:06.764Z,95.17
2018-03-16T05:27:07.048Z,95.17
2018-03-16T05:28:07.424Z,95.07
2018-03-16T05:29:07.470Z,95.17
2018-03-16T05:30:07.805Z,95.17
2018-03-16T05:31:08.002Z,95.17
2018-03-16T05:32:08.207Z,94.60
2018-03-16T05:33:08.587Z,95.45
2018-03-16T05:34:08.720Z,95.55
2018-03-16T05:35:09.033Z,95.55
2018-03-16T05:36:09.298Z,95.07
2018-03-16T05:37:09.584Z,94.60
2018-03-16T05:38:09.763Z,94.79
2018-03-16T05:39:09.996Z,94.79
2018-03-16T05:40:10.376Z,94.23
2018-03-16T05:41:10.592Z,94.42
2018-03-16T05:42:10.765Z,94.98
2018-03-16T05:43:11.022Z,94.98
2018-03-16T05:44:11.226Z,94.79
2018-03-16T05:45:11.465Z,94.42
2018-03-16T05:46:11.690Z,94.89
2018-03-16T05:47:11.923Z,94.89
2018-03-16T05:48:12.196Z,94.70
2018-03-16T05:49:12.446Z,94.60
2018-03-16T05:50:12.662Z,94.60
2018-03-16T05:51:12.901Z,94.32
2018-03-16T05:52:13.147Z,94.32
2018-03-16T05:53:13.366Z,94.79
2018-03-16T05:54:13.607Z,94.70
2018-03-16T05:55:13.908Z,94.42
2018-03-16T05:56:14.107Z,94.23
2018-03-16T05:57:14.356Z,94.42
2018-03-16T05:58:14.608Z,94.89
2018-03-16T05:59:14.851Z,94.32
2018-03-16T06:00:15.135Z,94.13
2018-03-16T06:01:15.356Z,94.42
2018-03-16T06:02:15.590Z,94.70
2018-03-16T06:03:15.870Z,94.70
2018-03-16T06:04:16.066Z,94.42
2018-03-16T06:05:16.325Z,94.23
2018-03-16T06:06:16.654Z,94.79
2018-03-16T06:07:16.857Z,94.79
2018-03-16T06:08:17.083Z,94.23
2018-03-16T06:09:17.337Z,94.42
2018-03-16T06:10:17.555Z,94.32
2018-03-16T06:11:17.834Z,94.32
2018-03-16T06:12:18.037Z,94.23
2018-03-16T06:13:18.300Z,94.04
2018-03-16T06:14:18.521Z,94.42
2018-03-16T06:15:18.756Z,95.17
2018-03-16T06:16:19.009Z,94.98
2018-03-16T06:17:19.223Z,95.17
2018-03-16T06:18:19.483Z,95.36
2018-03-16T06:19:19.722Z,94.89
2018-03-16T06:20:20.008Z,94.79
2018-03-16T06:21:20.254Z,94.60
2018-03-16T06:22:20.482Z,94.79
2018-03-16T06:23:20.723Z,94.23
2018-03-16T06:24:21.224Z,94.23
2018-03-16T06:25:21.363Z,94.32
2018-03-16T06:26:21.586Z,94.13
2018-03-16T06:27:21.872Z,94.23
2018-03-16T06:28:22.084Z,94.32
2018-03-16T06:29:22.407Z,94.60
2018-03-16T06:30:22.665Z,94.60
2018-03-16T06:31:22.907Z,94.32
2018-03-16T06:32:23.109Z,94.32
2018-03-16T06:33:23.365Z,94.98
2018-03-16T06:34:23.781Z,94.42
2018-03-16T06:35:23.872Z,94.23
2018-03-16T06:36:24.383Z,94.23
2018-03-16T06:46:09.141Z,93.46
2018-03-16T06:49:41.143Z,93.75
2018-03-16T06:50:41.258Z,94.13
2018-03-16T06:51:41.489Z,94.13
2018-03-16T06:52:41.722Z,93.94
2018-03-16T06:53:42.052Z,94.32
2018-03-16T06:54:42.288Z,94.04
2018-03-16T06:55:42.528Z,94.32
2018-03-16T06:56:42.863Z,94.04
2018-03-16T06:57:42.962Z,94.23
2018-03-16T06:58:43.213Z,93.84
2018-03-16T06:59:43.438Z,93.94
2018-03-16T07:00:43.806Z,93.94
2018-03-16T07:01:44.001Z,94.13
2018-03-16T07:02:44.272Z,93.84
2018-03-16T07:03:44.626Z,93.75
2018-03-16T07:04:44.997Z,93.27
2018-03-16T07:05:45.304Z,93.65
2018-03-16T07:06:45.442Z,93.27
2018-03-16T07:07:48.354Z,93.56
2018-03-16T07:08:46.279Z,93.65
2018-03-16T07:09:46.355Z,93.18
2018-03-16T07:10:46.573Z,93.08
2018-03-16T07:11:46.972Z,93.18
2018-03-16T07:12:47.301Z,92.90
2018-03-16T07:13:47.585Z,92.99
2018-03-16T07:14:47.997Z,93.18
2018-03-16T07:15:48.128Z,92.99
2018-03-16T07:16:48.244Z,93.27
2018-03-16T07:17:48.778Z,93.18
2018-03-16T07:18:50.295Z,93.18
2018-03-16T07:19:49.198Z,93.18
2018-03-16T07:20:49.349Z,93.56
2018-03-16T07:21:49.613Z,93.37
2018-03-16T07:22:59.202Z,93.37
2018-03-16T07:23:50.596Z,93.18
2018-03-16T07:24:52.013Z,93.37
2018-03-16T07:25:51.509Z,92.61
2018-03-16T07:26:51.061Z,92.33
2018-03-16T07:27:51.346Z,93.27
2018-03-16T07:28:51.504Z,92.90
2018-03-16T07:29:51.827Z,92.99
2018-03-16T07:30:52.053Z,92.61
2018-03-16T07:31:52.239Z,92.52
2018-03-16T07:32:52.483Z,93.08
2018-03-16T07:33:52.734Z,93.18
2018-03-16T07:34:52.962Z,92.71
2018-03-16T07:35:53.323Z,92.24
2018-03-16T07:36:53.576Z,92.33
2018-03-16T07:37:53.770Z,92.43
2018-03-16T07:38:53.989Z,93.42
2018-03-16T07:39:54.236Z,92.71
2018-03-16T07:40:54.464Z,92.47
2018-03-16T07:41:54.737Z,92.38
2018-03-16T07:42:55.052Z,92.66
2018-03-16T07:43:55.181Z,92.52
2018-03-16T07:44:55.478Z,92.76
2018-03-16T07:45:55.701Z,92.19
2018-03-16T07:46:55.927Z,92.00
2018-03-16T07:47:56.171Z,92.28
2018-03-16T07:48:56.452Z,92.38
2018-03-16T07:49:56.663Z,92.19
2018-03-16T07:50:59.311Z,92.00
2018-03-16T07:52:11.275Z,91.71
2018-03-16T07:52:57.920Z,91.81
2018-03-16T07:54:00.143Z,91.43
2018-03-16T07:54:58.309Z,91.05
2018-03-16T07:55:59.347Z,90.77
2018-03-16T07:56:59.071Z,91.33
2018-03-16T07:57:59.461Z,91.05
2018-03-16T07:59:14.401Z,91.05
2018-03-16T08:01:03.116Z,91.24
2018-03-16T08:02:03.043Z,91.05
2018-03-16T08:03:03.129Z,91.05
2018-03-16T08:04:01.604Z,90.48
2018-03-16T08:05:01.658Z,90.10
2018-03-16T08:06:01.711Z,90.01
2018-03-16T08:07:01.973Z,90.48
2018-03-16T08:08:02.240Z,91.14
2018-03-16T08:09:02.457Z,90.58
2018-03-16T08:10:02.665Z,90.77
2018-03-16T08:11:02.920Z,91.05
2018-03-16T08:12:03.368Z,90.77
2018-03-16T08:13:03.516Z,91.05
2018-03-16T08:14:03.709Z,90.67
2018-03-16T08:15:03.876Z,90.39
2018-03-16T08:16:04.115Z,90.95
2018-03-16T08:17:04.389Z,91.14
2018-03-16T08:18:04.607Z,90.77
2018-03-16T08:19:04.836Z,91.24
2018-03-16T08:20:05.060Z,90.67
2018-03-16T08:21:05.335Z,90.58
2018-03-16T08:22:05.610Z,91.19
2018-03-16T08:23:06.013Z,91.14
2018-03-16T08:24:06.400Z,91.00
2018-03-16T08:25:06.726Z,89.91
2018-03-16T08:26:06.596Z,90.34
2018-03-16T08:27:06.879Z,90.53
2018-03-16T08:28:07.069Z,91.28
2018-03-16T08:29:07.368Z,91.00
2018-03-16T08:30:07.600Z,90.91
2018-03-16T08:31:07.813Z,91.28
2018-03-16T08:32:08.038Z,91.09
2018-03-16T08:33:11.223Z,90.53
2018-03-16T08:34:09.346Z,90.62
2018-03-16T08:35:09.403Z,90.43
2018-03-16T08:36:10.181Z,90.43
2018-03-16T08:37:11.071Z,91.28
2018-03-16T08:38:10.258Z,91.00
2018-03-16T08:39:12.544Z,91.00
2018-03-16T08:40:11.044Z,90.34
2018-03-16T08:41:13.791Z,90.62
2018-03-16T08:42:11.532Z,90.53
2018-03-16T08:43:11.741Z,90.24
2018-03-16T08:44:11.959Z,91.19
2018-03-16T08:45:12.376Z,90.24
2018-03-16T08:46:12.496Z,89.58
2018-03-16T08:47:12.809Z,89.77
2018-03-16T08:48:13.001Z,89.58
2018-03-16T08:49:13.219Z,90.05
2018-03-16T08:50:13.492Z,90.53
2018-03-16T08:51:13.788Z,90.24
2018-03-16T08:52:13.991Z,90.24
2018-03-16T08:53:14.216Z,90.62
2018-03-16T08:54:14.623Z,90.72
2018-03-16T08:55:14.740Z,89.96
2018-03-16T08:56:15.070Z,89.58
2018-03-16T08:57:15.263Z,90.05
2018-03-16T08:58:15.477Z,90.81
2018-03-16T08:59:15.707Z,90.43
2018-03-16T09:00:16.067Z,90.43
2018-03-16T09:01:16.234Z,91.19
2018-03-16T09:02:16.499Z,91.09
2018-03-16T09:03:16.845Z,91.00
2018-03-16T09:04:17.127Z,91.09
2018-03-16T09:05:17.277Z,90.53
2018-03-16T09:06:17.683Z,89.86
2018-03-16T09:07:17.810Z,89.86
2018-03-16T09:08:18.125Z,90.34
2018-03-16T09:09:18.374Z,90.05
2018-03-16T09:10:18.634Z,89.48
2018-03-16T09:11:20.828Z,90.91
2018-03-16T09:12:19.208Z,90.34
2018-03-16T09:13:19.368Z,89.67
2018-03-16T09:14:19.597Z,89.67
2018-03-16T09:15:19.917Z,90.15
2018-03-16T09:16:20.096Z,89.58
2018-03-16T09:17:20.281Z,89.96
2018-03-16T09:18:20.483Z,90.53
2018-03-16T09:19:20.883Z,89.58
2018-03-16T09:20:21.461Z,89.67
2018-03-16T09:21:21.320Z,90.34
2018-03-16T09:22:21.563Z,91.09
2018-03-16T09:23:21.875Z,91.19
2018-03-16T09:24:22.042Z,91.76
2018-03-16T09:25:22.307Z,91.47
2018-03-16T09:26:22.573Z,90.91
2018-03-16T09:27:22.810Z,90.81
2018-03-16T09:28:23.004Z,90.24
2018-03-16T09:29:23.248Z,90.53
2018-03-16T09:30:23.497Z,90.24
2018-03-16T09:31:23.721Z,90.24
2018-03-16T09:32:23.969Z,90.62
2018-03-16T09:33:24.252Z,90.81
2018-03-16T09:34:24.470Z,90.34
2018-03-16T09:35:24.748Z,91.09
2018-03-16T09:36:24.972Z,91.00
2018-03-16T09:37:25.184Z,90.62
2018-03-16T09:38:25.430Z,90.76
2018-03-16T09:39:25.698Z,90.29
2018-03-16T09:40:25.951Z,89.91
2018-03-16T09:41:26.232Z,90.76
2018-03-16T09:42:26.427Z,89.62
2018-03-16T09:43:26.686Z,89.62
2018-03-16T09:44:26.949Z,90.10
2018-03-16T09:45:27.306Z,90.10
2018-03-16T09:46:27.482Z,90.57
2018-03-16T09:47:27.709Z,90.00
2018-03-16T09:48:28.093Z,89.43
2018-03-16T09:49:28.286Z,88.87
2018-03-16T09:50:28.444Z,88.68
2018-03-16T09:51:28.759Z,89.25
2018-03-16T09:52:28.972Z,88.87
2018-03-16T09:53:29.166Z,89.43
2018-03-16T09:54:29.453Z,89.25
2018-03-16T09:55:29.713Z,89.06
2018-03-16T09:56:29.917Z,88.77
2018-03-16T09:57:30.190Z,89.34
2018-03-16T09:58:30.435Z,88.87
2018-03-16T09:59:30.718Z,88.39
2018-03-16T10:00:31.273Z,88.77
2018-03-16T10:01:31.185Z,88.87
2018-03-16T10:02:31.437Z,88.77
2018-03-16T10:03:31.768Z,88.58
2018-03-16T10:04:31.934Z,87.92
2018-03-16T10:05:32.205Z,87.25
2018-03-16T10:06:32.430Z,87.35
2018-03-16T10:07:32.682Z,88.29
2018-03-16T10:08:32.942Z,89.34
2018-03-16T10:09:33.231Z,89.15
2018-03-16T10:10:33.563Z,89.34
2018-03-16T10:11:33.912Z,89.06
2018-03-16T10:12:34.231Z,88.96
2018-03-16T10:13:34.399Z,88.68
2018-03-16T10:14:34.649Z,87.82
2018-03-16T10:15:34.904Z,87.82
2018-03-16T10:16:35.142Z,87.92
2018-03-16T10:17:35.470Z,88.20
2018-03-16T10:18:35.620Z,88.48
2018-03-16T10:19:35.875Z,88.48
2018-03-16T10:20:36.119Z,88.54
2018-03-16T10:21:36.378Z,89.15
2018-03-16T10:22:36.607Z,89.11
2018-03-16T10:23:36.892Z,88.87
2018-03-16T10:24:37.182Z,88.35
2018-03-16T10:25:37.350Z,88.35
2018-03-16T10:26:37.602Z,88.73
2018-03-16T10:27:38.101Z,89.06
2018-03-16T10:28:41.365Z,88.39
2018-03-16T10:29:42.083Z,88.20
2018-03-16T10:30:40.023Z,88.35
2018-03-16T10:31:39.996Z,87.82
2018-03-16T10:32:41.651Z,88.29
2018-03-16T10:33:40.812Z,88.25
2018-03-16T10:34:41.448Z,89.01
2018-03-16T10:35:41.077Z,89.29
2018-03-16T10:36:41.753Z,89.20
2018-03-16T10:37:42.469Z,90.05
2018-03-16T10:38:41.659Z,89.67
2018-03-16T10:39:42.548Z,90.62
2018-03-16T10:40:42.356Z,91.38
2018-03-16T10:41:43.546Z,91.38
2018-03-16T10:42:47.349Z,91.09
2018-03-16T10:43:43.418Z,90.43
2018-03-16T10:44:43.518Z,89.96
2018-03-16T10:45:43.776Z,89.48
2018-03-16T10:46:44.181Z,89.67
2018-03-16T10:47:44.337Z,89.20
2018-03-16T10:48:44.580Z,89.20
2018-03-16T10:49:44.813Z,89.96
2018-03-16T10:50:45.110Z,90.15
2018-03-16T10:51:45.533Z,90.62
2018-03-16T10:52:45.740Z,90.72
2018-03-16T10:53:46.016Z,89.48
2018-03-16T10:54:46.282Z,89.20
2018-03-16T10:55:47.289Z,89.20
2018-03-16T10:56:47.627Z,89.11
2018-03-16T10:57:47.226Z,89.39
2018-03-16T10:58:47.708Z,89.58
2018-03-16T10:59:48.554Z,88.92
2018-03-16T11:00:49.065Z,89.67
2018-03-16T11:01:48.976Z,89.20
2018-03-16T11:02:48.981Z,89.11
2018-03-16T11:03:49.491Z,88.92
2018-03-16T11:04:49.614Z,89.48
2018-03-16T11:05:49.704Z,89.20
2018-03-16T11:06:49.858Z,89.20
2018-03-16T11:07:50.104Z,88.92
2018-03-16T11:08:50.279Z,89.01
2018-03-16T11:09:50.549Z,89.20
2018-03-16T11:10:50.813Z,89.67
2018-03-16T11:11:51.035Z,90.34
2018-03-16T11:12:51.362Z,90.24
2018-03-16T11:13:51.536Z,90.53
2018-03-16T11:14:51.808Z,90.53
2018-03-16T11:15:52.229Z,90.91
2018-03-16T11:16:52.342Z,91.09
2018-03-16T11:17:52.581Z,91.28
2018-03-16T11:18:52.783Z,91.47
2018-03-16T11:19:53.054Z,91.09
2018-03-16T11:20:53.259Z,90.91
2018-03-16T11:21:53.590Z,90.81
2018-03-16T11:22:53.839Z,89.96
2018-03-16T11:23:54.100Z,90.05
2018-03-16T11:24:54.315Z,90.15
2018-03-16T11:25:54.647Z,89.39
2018-03-16T11:26:54.903Z,89.67
2018-03-16T11:27:55.196Z,90.24
2018-03-16T11:28:55.374Z,90.91
2018-03-16T11:29:55.727Z,91.28
2018-03-16T11:30:55.887Z,91.19
2018-03-16T11:31:56.126Z,92.04
2018-03-16T11:32:59.399Z,91.85
2018-03-16T11:33:56.627Z,92.14
2018-03-16T11:34:56.931Z,91.09
2018-03-16T11:35:57.204Z,90.05
2018-03-16T11:36:57.498Z,90.24
2018-03-16T11:37:57.625Z,90.43
2018-03-16T11:38:57.905Z,90.72
2018-03-16T11:39:58.163Z,89.96
2018-03-16T11:40:58.435Z,90.15
2018-03-16T11:41:58.652Z,89.58
2018-03-16T11:42:58.863Z,90.15
2018-03-16T11:43:59.232Z,90.15
2018-03-16T11:44:59.440Z,89.58
2018-03-16T11:45:59.717Z,89.86
2018-03-16T11:46:59.917Z,89.29
2018-03-16T11:48:00.419Z,89.20
2018-03-16T11:49:00.464Z,89.96
2018-03-16T11:50:00.756Z,89.77
2018-03-16T11:51:01.039Z,89.67
2018-03-16T11:52:01.300Z,89.01
2018-03-16T11:53:01.799Z,89.20
2018-03-16T11:54:01.925Z,89.11
2018-03-16T11:55:01.920Z,89.86
2018-03-16T11:56:02.178Z,89.11
2018-03-16T11:57:02.460Z,89.39
2018-03-16T11:58:02.738Z,89.48
2018-03-16T11:59:02.911Z,89.86
2018-03-16T12:00:07.735Z,89.67
2018-03-16T12:01:03.563Z,89.67
2018-03-16T12:02:03.959Z,89.86
2018-03-16T12:03:04.079Z,89.58
2018-03-16T12:04:06.493Z,90.34
2018-03-16T12:05:05.066Z,90.05
2018-03-16T12:06:05.217Z,90.24
2018-03-16T12:07:05.237Z,90.53
2018-03-16T12:08:05.485Z,90.24
2018-03-16T12:09:05.747Z,90.24
2018-03-16T12:10:05.960Z,90.72
2018-03-16T12:11:06.195Z,90.15
2018-03-16T12:12:06.484Z,89.58
2018-03-16T12:13:06.695Z,89.96
2018-03-16T12:14:06.944Z,90.05
2018-03-16T12:15:07.300Z,89.39
2018-03-16T12:16:07.569Z,89.20
2018-03-16T12:17:07.728Z,89.29
2018-03-16T12:18:07.954Z,89.20
2018-03-16T12:19:08.202Z,89.01
2018-03-16T12:20:08.461Z,89.48
2018-03-16T12:21:08.736Z,89.67
2018-03-16T12:22:08.948Z,89.77
2018-03-16T12:23:09.188Z,89.86
2018-03-16T12:24:09.530Z,89.86
2018-03-16T12:25:09.696Z,89.58
2018-03-16T12:26:10.765Z,89.67
2018-03-16T12:27:46.458Z,89.01
2018-03-16T12:28:10.994Z,89.39
2018-03-16T12:29:25.828Z,89.77
2018-03-16T12:30:11.754Z,89.77
2018-03-16T12:31:11.830Z,89.96
2018-03-16T12:32:12.010Z,89.86
2018-03-16T12:33:12.355Z,90.05
2018-03-16T12:34:12.554Z,89.77
2018-03-16T12:35:12.787Z,89.48
2018-03-16T12:36:12.989Z,89.96
2018-03-16T12:37:13.196Z,89.77
2018-03-16T12:38:13.493Z,90.81
2018-03-16T12:39:13.690Z,90.05
2018-03-16T12:40:13.967Z,89.29
2018-03-16T12:41:14.266Z,88.92
2018-03-16T12:42:14.680Z,88.92
2018-03-16T12:43:14.760Z,89.96
2018-03-16T12:44:15.051Z,89.29
2018-03-16T12:45:15.284Z,88.92
2018-03-16T12:46:15.522Z,88.82
2018-03-16T12:47:15.732Z,89.11
2018-03-16T12:48:16.049Z,89.39
2018-03-16T12:49:16.240Z,89.67
2018-03-16T12:50:16.422Z,89.20
2018-03-16T12:51:16.723Z,89.20
2018-03-16T12:52:16.898Z,89.01
2018-03-16T12:53:17.194Z,89.01
2018-03-16T12:54:17.429Z,89.67
2018-03-16T12:55:17.732Z,89.58
2018-03-16T12:56:18.125Z,89.11
2018-03-16T12:57:18.343Z,89.01
2018-03-16T12:58:19.003Z,89.29
2018-03-16T12:59:18.915Z,89.01
2018-03-16T13:00:19.185Z,89.58
2018-03-16T13:01:19.383Z,89.20
2018-03-16T13:02:22.757Z,88.63
2018-03-16T13:03:19.895Z,88.82
2018-03-16T13:04:20.317Z,88.82
2018-03-16T13:05:20.362Z,88.54
2018-03-16T13:06:20.638Z,88.63
2018-03-16T13:07:20.954Z,89.29
2018-03-16T13:08:24.380Z,89.01
2018-03-16T13:09:24.387Z,88.63
2018-03-16T13:10:23.985Z,88.92
2018-03-16T13:11:22.443Z,89.29
2018-03-16T13:12:22.614Z,89.11
2018-03-16T13:13:22.793Z,89.01
2018-03-16T13:14:22.947Z,88.82
2018-03-16T13:15:23.178Z,88.92
2018-03-16T13:16:23.442Z,89.01
2018-03-16T13:17:23.690Z,89.96
2018-03-16T13:18:24.075Z,89.67
2018-03-16T13:19:24.179Z,89.11
2018-03-16T13:20:24.405Z,88.54
2018-03-16T13:21:24.805Z,89.20
2018-03-16T13:22:25.552Z,89.25
2018-03-16T13:23:25.370Z,89.15
2018-03-16T13:24:25.657Z,89.58
2018-03-16T13:25:25.928Z,90.24
2018-03-16T13:26:26.138Z,90.72
2018-03-16T13:27:26.341Z,89.77
2018-03-16T13:28:26.555Z,89.29
2018-03-16T13:29:26.833Z,88.92